Terminal Aerodrome Forecast
Issued by NWS Hastings, NE

Home | Current Version | Previous Version | Text Only | Print | Product List | Glossary On
Versions: 1 2 3 4 5 6 7 8 9 10 11 12 13 14 15 16 17 18 19 20 21 22 23 24 25 26 27
000
FTUS43 KGID 181740
TAFGRI
TAF
KGRI 181740Z 1818/1918 13012G20KT P6SM SKC
     FM181900 14012G20KT P6SM SCT025
     FM190100 15008KT P6SM SCT040
     FM190600 17008G15KT P6SM SCT030=

USA.gov is the U.S. government's official web portal to all federal, state and local government web resources and services.